Time;durP1;ratioP1;P1;durP2;ratioP2;P2;SDS_P1;SDS_P2;PMS_P1;PMS_P2;Temp;Humidity;BMP_temperature;BMP_pressure;BME280_temperature;BME280_humidity;BME280_pressure;Samples;Min_cycle;Max_cycle;Signal;HPM_P1;HPM_P2
2022/08/30 00:01:33;;;;;;;11.32;6.35;;;;;;;16.53;76.02;101964.44;5038053;28;20067;-79
2022/08/30 00:04:01;;;;;;;12.00;6.50;;;;;;;16.46;76.88;101956.88;5038100;28;20021;-79
2022/08/30 00:06:27;;;;;;;16.63;6.60;;;;;;;16.51;76.46;101955.66;5038513;28;20065;-79
2022/08/30 00:08:54;;;;;;;8.32;5.45;;;;;;;16.48;76.71;101947.88;5025093;28;20021;-79
2022/08/30 00:11:24;;;;;;;11.23;6.15;;;;;;;16.38;76.90;101945.94;5031452;28;20079;-79
2022/08/30 00:13:51;;;;;;;12.32;6.50;;;;;;;16.42;76.81;101951.91;5026032;28;20032;-79
2022/08/30 00:16:19;;;;;;;11.10;5.70;;;;;;;16.39;76.62;101953.03;5024364;28;20017;-79
2022/08/30 00:18:44;;;;;;;14.07;6.20;;;;;;;16.38;77.23;101955.84;5037338;28;20380;-79
2022/08/30 00:21:10;;;;;;;14.07;5.88;;;;;;;16.37;77.64;101962.16;5044197;28;20029;-79
2022/08/30 00:23:36;;;;;;;8.95;5.55;;;;;;;16.35;77.18;101969.50;5026444;28;20439;-79
2022/08/30 00:26:03;;;;;;;12.98;6.30;;;;;;;16.31;77.61;101960.03;5023624;28;20034;-79
2022/08/30 00:28:29;;;;;;;10.57;5.85;;;;;;;16.26;77.68;101955.88;5016525;28;20025;-79
2022/08/30 00:30:54;;;;;;;12.73;6.15;;;;;;;16.24;77.69;101954.31;5036073;28;20045;-79
2022/08/30 00:33:20;;;;;;;9.48;5.75;;;;;;;16.26;77.76;101961.25;5020347;28;20432;-79
2022/08/30 00:35:46;;;;;;;10.63;5.97;;;;;;;16.24;77.67;101962.38;5039896;28;20053;-79
2022/08/30 00:38:12;;;;;;;12.77;6.22;;;;;;;16.20;77.92;101958.22;5029804;28;20074;-77
2022/08/30 00:40:40;;;;;;;12.02;5.90;;;;;;;16.21;78.14;101966.13;5021631;28;20025;-79
2022/08/30 00:43:08;;;;;;;9.82;6.38;;;;;;;16.16;78.97;101965.66;5037174;28;20049;-79
2022/08/30 00:45:36;;;;;;;11.90;5.90;;;;;;;16.12;78.50;101950.81;5035770;28;20030;-79
2022/08/30 00:48:03;;;;;;;11.18;5.97;;;;;;;16.18;78.91;101970.91;5023823;28;20034;-79
2022/08/30 00:53:08;;;;;;;10.60;6.18;;;;;;;16.16;78.90;101962.97;5073206;23;20135;-50
2022/08/30 00:55:33;;;;;;;11.60;6.18;;;;;;;16.18;78.95;101958.34;5075083;28;20024;-49
2022/08/30 00:58:02;;;;;;;11.75;6.22;;;;;;;16.14;79.60;101961.41;5079394;28;20043;-49
2022/08/30 01:00:28;;;;;;;14.25;5.75;;;;;;;16.20;79.21;101960.91;5079002;28;20055;-49
2022/08/30 01:02:53;;;;;;;12.40;6.13;;;;;;;16.17;79.88;101966.50;5067246;28;20067;-48
2022/08/30 01:05:20;;;;;;;12.15;5.40;;;;;;;16.19;79.46;101962.72;5069634;28;20028;-50
2022/08/30 01:07:45;;;;;;;9.82;5.50;;;;;;;16.20;79.08;101958.22;5082112;28;20075;-47
2022/08/30 01:10:13;;;;;;;11.73;6.10;;;;;;;16.20;79.82;101964.41;5071212;28;20032;-47
2022/08/30 01:12:40;;;;;;;12.30;6.07;;;;;;;16.23;79.53;101969.53;5062237;28;20025;-48
2022/08/30 01:15:06;;;;;;;7.95;5.60;;;;;;;16.20;80.25;101976.97;5080421;28;20028;-49
2022/08/30 01:17:33;;;;;;;9.18;5.60;;;;;;;16.21;79.93;101976.84;5080979;28;20085;-46
2022/08/30 01:20:10;;;;;;;8.98;4.97;;;;;;;16.22;80.18;101967.84;5066493;28;20033;-49
2022/08/30 01:22:38;;;;;;;8.90;5.40;;;;;;;16.23;80.36;101969.53;5082067;28;20027;-49
2022/08/30 01:25:06;;;;;;;9.80;5.50;;;;;;;16.23;80.18;101974.88;5075908;28;20029;-50
2022/08/30 01:27:33;;;;;;;12.25;5.20;;;;;;;16.23;80.29;101968.69;5080829;28;20093;-48
2022/08/30 01:30:00;;;;;;;10.55;5.30;;;;;;;16.23;80.40;101961.50;5086860;28;20112;-49
2022/08/30 01:32:28;;;;;;;12.23;5.57;;;;;;;16.23;79.98;101976.72;5068420;28;20108;-51
2022/08/30 01:34:54;;;;;;;8.07;5.13;;;;;;;16.22;80.34;101961.63;5062884;28;20113;-46
2022/08/30 01:37:27;;;;;;;10.02;5.20;;;;;;;16.20;80.07;101975.13;5082659;28;20036;-50
2022/08/30 01:39:54;;;;;;;9.52;5.40;;;;;;;16.20;80.41;101974.31;5072341;28;20024;-48
2022/08/30 01:42:20;;;;;;;8.25;4.75;;;;;;;16.15;80.52;101973.81;5087449;28;20028;-50
2022/08/30 01:44:45;;;;;;;10.52;5.30;;;;;;;16.12;80.87;101969.59;5092357;28;20020;-50
2022/08/30 01:47:12;;;;;;;8.52;5.28;;;;;;;16.15;80.00;101980.03;5077492;28;20029;-49
2022/08/30 01:49:37;;;;;;;8.95;4.78;;;;;;;16.15;79.97;101980.03;5073768;28;20026;-48
2022/08/30 01:52:04;;;;;;;7.88;4.90;;;;;;;16.13;80.51;101981.16;5060005;28;20040;-49
2022/08/30 01:54:32;;;;;;;9.10;5.35;;;;;;;16.12;80.77;101974.94;5066424;28;20021;-52
2022/08/30 01:56:57;;;;;;;8.23;5.05;;;;;;;16.15;80.14;101971.16;5069657;28;20108;-46
2022/08/30 01:59:22;;;;;;;8.90;5.10;;;;;;;16.15;80.52;101973.81;5058136;28;20069;-48
2022/08/30 02:01:47;;;;;;;11.33;5.30;;;;;;;16.12;80.72;101972.28;5075276;28;20493;-47
2022/08/30 02:04:13;;;;;;;5.65;4.85;;;;;;;16.12;80.35;101964.22;5065487;28;20288;-47
2022/08/30 02:06:39;;;;;;;7.88;5.07;;;;;;;16.08;80.77;101960.91;5071875;28;20013;-49
2022/08/30 02:09:04;;;;;;;6.97;5.00;;;;;;;16.08;81.26;101960.09;5065827;28;20474;-47
2022/08/30 02:11:30;;;;;;;11.25;5.50;;;;;;;16.08;80.95;101962.75;5065144;28;20052;-47
2022/08/30 02:13:55;;;;;;;9.40;4.77;;;;;;;16.06;80.29;101962.88;5056445;28;20157;-47
2022/08/30 02:16:22;;;;;;;9.35;5.45;;;;;;;16.03;81.08;101960.44;5057276;28;20364;-47
2022/08/30 02:18:49;;;;;;;6.95;5.18;;;;;;;16.02;80.87;101961.44;5059498;28;20025;-48
2022/08/30 02:21:14;;;;;;;10.55;5.43;;;;;;;16.02;80.36;101953.41;5058290;28;20062;-46
2022/08/30 02:23:40;;;;;;;8.90;5.53;;;;;;;16.02;80.43;101961.44;5057513;28;20429;-50
2022/08/30 02:26:06;;;;;;;9.70;5.35;;;;;;;16.00;80.70;101960.69;5057239;28;20017;-48
2022/08/30 02:28:31;;;;;;;9.68;6.10;;;;;;;15.99;80.94;101964.38;5056326;28;20051;-48
2022/08/30 02:30:57;;;;;;;8.80;5.35;;;;;;;15.96;81.07;101959.25;5061499;28;20079;-47
2022/08/30 02:33:22;;;;;;;10.93;5.53;;;;;;;15.91;81.29;101954.28;5056163;28;20494;-46
2022/08/30 02:35:48;;;;;;;12.33;5.47;;;;;;;15.90;81.10;101955.28;5058538;28;20037;-47
2022/08/30 02:38:13;;;;;;;11.10;5.88;;;;;;;15.86;81.40;101951.13;5055586;28;20363;-48
2022/08/30 02:40:39;;;;;;;10.80;6.03;;;;;;;15.86;81.64;101952.97;5058429;28;20029;-48
2022/08/30 02:43:04;;;;;;;10.43;5.82;;;;;;;15.87;81.60;101951.97;5056775;28;20021;-51
2022/08/30 02:45:30;;;;;;;7.90;5.93;;;;;;;15.85;81.13;101946.75;5058346;28;20030;-48
2022/08/30 02:47:55;;;;;;;7.97;6.07;;;;;;;15.85;81.57;101945.88;5061168;28;20033;-49
2022/08/30 02:50:21;;;;;;;6.93;5.78;;;;;;;15.81;81.81;101947.97;5057738;28;20029;-48
2022/08/30 02:52:47;;;;;;;8.38;5.88;;;;;;;15.80;81.47;101943.56;5056567;28;20048;-48
2022/08/30 02:55:13;;;;;;;9.93;6.25;;;;;;;15.79;81.60;101941.06;5057245;28;20037;-50
2022/08/30 02:57:38;;;;;;;6.47;5.32;;;;;;;15.74;82.17;101946.75;5059102;28;20056;-47
2022/08/30 03:00:10;;;;;;;8.90;6.10;;;;;;;15.73;82.45;101939.66;5073352;28;20024;-47
2022/08/30 03:02:35;;;;;;;8.00;6.18;;;;;;;15.71;82.19;101944.31;5064926;28;20047;-51
2022/08/30 03:05:03;;;;;;;15.03;6.33;;;;;;;15.70;82.34;101938.09;5068569;28;20456;-46
2022/08/30 03:07:28;;;;;;;11.25;5.55;;;;;;;15.67;82.31;101938.34;5080242;28;20381;-47
2022/08/30 03:09:53;;;;;;;12.33;6.13;;;;;;;15.65;82.63;101937.59;5087159;28;20112;-46
2022/08/30 03:12:18;;;;;;;11.02;6.10;;;;;;;15.63;82.22;101936.88;5074151;28;20298;-47
2022/08/30 03:14:44;;;;;;;9.40;5.87;;;;;;;15.64;81.97;101935.91;5077006;28;20058;-46
2022/08/30 03:17:09;;;;;;;8.13;5.78;;;;;;;15.61;82.54;101928.13;5083751;28;20270;-48
2022/08/30 03:19:35;;;;;;;10.13;6.33;;;;;;;15.62;82.45;101940.56;5088040;28;20105;-47
2022/08/30 03:22:02;;;;;;;9.60;5.63;;;;;;;15.62;82.27;101937.88;5079917;28;20286;-47
2022/08/30 03:24:27;;;;;;;7.55;6.18;;;;;;;15.62;81.49;101934.31;5073122;28;20017;-46
2022/08/30 03:26:52;;;;;;;10.10;6.50;;;;;;;15.64;82.29;101935.06;5084170;28;20054;-46
2022/08/30 03:29:18;;;;;;;8.68;6.78;;;;;;;15.62;82.78;101937.00;5073954;28;20566;-47
2022/08/30 03:31:43;;;;;;;8.15;6.22;;;;;;;15.64;82.60;101932.41;5083628;28;20070;-48
2022/08/30 03:34:09;;;;;;;10.85;6.38;;;;;;;15.65;82.26;101932.25;5072950;28;20071;-48
2022/08/30 03:36:37;;;;;;;11.10;6.47;;;;;;;15.65;82.39;101934.09;5083961;28;20112;-48
2022/08/30 03:39:03;;;;;;;8.00;6.32;;;;;;;15.65;82.39;101934.09;5076134;28;20524;-50
2022/08/30 03:41:29;;;;;;;8.10;6.22;;;;;;;15.63;82.58;101931.53;5083369;28;20047;-50
2022/08/30 03:43:54;;;;;;;8.25;6.05;;;;;;;15.62;82.50;101931.66;5092043;28;20024;-49
2022/08/30 03:46:19;;;;;;;8.63;6.60;;;;;;;15.62;82.46;101934.31;5071978;28;20428;-51
2022/08/30 03:48:45;;;;;;;8.93;6.70;;;;;;;15.62;82.29;101932.53;5071933;28;20275;-49
2022/08/30 03:51:10;;;;;;;10.98;6.65;;;;;;;15.59;82.46;101930.09;5073795;28;20286;-50
2022/08/30 03:53:35;;;;;;;11.87;6.60;;;;;;;15.60;82.80;101938.97;5071830;28;20055;-47
2022/08/30 03:56:02;;;;;;;7.80;6.13;;;;;;;15.57;82.19;101942.75;5063834;28;20294;-47
2022/08/30 03:58:27;;;;;;;12.27;7.22;;;;;;;15.61;82.58;101943.34;5064042;28;20290;-48
2022/08/30 04:00:53;;;;;;;10.15;7.80;;;;;;;15.57;83.36;101933.84;5054893;28;20021;-48
2022/08/30 04:03:24;;;;;;;10.45;7.05;;;;;;;15.54;83.04;101933.13;5064496;28;20044;-46
2022/08/30 04:05:49;;;;;;;9.52;6.60;;;;;;;15.56;82.53;101935.69;5075038;28;20051;-50
2022/08/30 04:08:15;;;;;;;10.38;7.05;;;;;;;15.53;82.68;101933.25;5077519;28;20063;-47
2022/08/30 04:10:40;;;;;;;11.33;7.40;;;;;;;15.55;82.43;101933.97;5083380;28;20111;-49
2022/08/30 04:13:05;;;;;;;10.07;7.38;;;;;;;15.51;83.01;101936.03;5075202;28;20333;-46
2022/08/30 04:15:31;;;;;;;11.75;7.55;;;;;;;15.51;82.98;101936.03;5073679;28;20059;-47
2022/08/30 04:17:56;;;;;;;9.88;7.10;;;;;;;15.49;82.72;101929.13;5076596;28;20028;-48
2022/08/30 04:20:21;;;;;;;9.07;7.03;;;;;;;15.49;82.43;101934.47;5093502;28;20024;-49
2022/08/30 04:22:47;;;;;;;8.05;6.93;;;;;;;15.46;83.46;101940.06;5089474;28;20278;-48
2022/08/30 04:25:12;;;;;;;10.02;7.25;;;;;;;15.46;82.63;101943.59;5083198;28;20024;-49
2022/08/30 04:27:37;;;;;;;9.10;7.40;;;;;;;15.44;83.05;101944.72;5088238;28;20032;-47
2022/08/30 04:30:04;;;;;;;10.05;7.60;;;;;;;15.43;83.55;101943.00;5078397;28;20032;-48
2022/08/30 04:32:29;;;;;;;12.18;7.63;;;;;;;15.44;82.95;101952.75;5083903;28;20473;-47
2022/08/30 04:34:56;;;;;;;9.68;7.53;;;;;;;15.45;83.02;101954.44;5056508;28;20116;-48
2022/08/30 04:37:21;;;;;;;9.88;7.72;;;;;;;15.44;83.49;101950.91;5053397;28;20025;-49
2022/08/30 04:39:47;;;;;;;8.70;7.80;;;;;;;15.45;82.99;101951.75;5053374;28;20070;-47
2022/08/30 04:42:13;;;;;;;8.80;7.63;;;;;;;15.43;83.53;101954.53;5053427;28;20088;-46
2022/08/30 04:44:38;;;;;;;11.65;8.52;;;;;;;15.44;83.43;101958.94;5052452;28;20041;-48
2022/08/30 04:47:03;;;;;;;11.88;8.35;;;;;;;15.43;83.52;101959.06;5057213;28;20060;-47
2022/08/30 04:49:30;;;;;;;11.70;8.25;;;;;;;15.43;83.21;101959.06;5081440;28;20028;-47
2022/08/30 04:51:55;;;;;;;8.85;7.78;;;;;;;15.43;83.18;101969.78;5076590;28;20048;-46
2022/08/30 04:54:21;;;;;;;10.67;8.30;;;;;;;15.41;83.15;101966.38;5080667;28;20398;-47
2022/08/30 04:56:46;;;;;;;10.43;8.10;;;;;;;15.43;83.05;101967.09;5090500;28;20278;-49
2022/08/30 04:59:12;;;;;;;12.73;8.80;;;;;;;15.40;83.34;101967.31;5065950;28;20033;-46
2022/08/30 05:01:37;;;;;;;9.07;8.15;;;;;;;15.40;83.65;101961.97;5071011;28;20021;-47
2022/08/30 05:04:03;;;;;;;9.07;8.25;;;;;;;15.39;83.18;101955.78;5053232;28;20525;-46
2022/08/30 05:06:30;;;;;;;13.85;9.27;;;;;;;15.36;83.69;101964.03;5079635;28;20027;-47
2022/08/30 05:08:55;;;;;;;12.18;9.88;;;;;;;15.34;83.79;101968.69;5053546;28;20075;-48
2022/08/30 05:11:21;;;;;;;14.50;9.38;;;;;;;15.34;83.95;101961.50;5053320;28;20390;-48
2022/08/30 05:13:46;;;;;;;11.52;9.10;;;;;;;15.33;83.52;101969.63;5056183;28;20094;-48
2022/08/30 05:16:16;;;;;;;12.07;9.00;;;;;;;15.33;83.33;101972.31;5088078;28;20085;-47
2022/08/30 05:18:43;;;;;;;11.75;9.35;;;;;;;15.31;83.81;101975.13;5083022;28;20024;-47
2022/08/30 05:21:15;;;;;;;17.08;9.65;;;;;;;15.32;83.48;101971.47;5072272;28;20032;-46
2022/08/30 05:23:41;;;;;;;10.23;9.18;;;;;;;15.31;84.11;101976.94;5072576;28;20062;-50
2022/08/30 05:26:16;;;;;;;12.18;9.63;;;;;;;15.30;83.54;101978.75;5055787;28;20017;-49
2022/08/30 05:28:42;;;;;;;14.63;10.13;;;;;;;15.29;84.12;101985.09;5053601;28;20509;-48
2022/08/30 05:31:22;;;;;;;10.95;9.95;;;;;;;15.34;83.67;101990.09;5057195;28;20037;-50
2022/08/30 05:33:49;;;;;;;11.35;10.25;;;;;;;15.33;84.13;101983.03;5059678;28;20029;-49
2022/08/30 05:36:17;;;;;;;12.73;9.85;;;;;;;15.33;84.09;101989.22;5063520;28;20064;-50
2022/08/30 05:38:42;;;;;;;11.20;9.32;;;;;;;15.35;84.10;101987.28;5053724;28;20386;-46
2022/08/30 05:41:08;;;;;;;11.63;10.13;;;;;;;15.35;84.03;101992.66;5052693;28;20033;-48
2022/08/30 05:43:34;;;;;;;11.52;9.85;;;;;;;15.35;84.41;101984.63;5052880;28;20377;-48
2022/08/30 05:46:05;;;;;;;11.02;9.85;;;;;;;15.40;84.07;101986.06;5053391;28;20029;-47
2022/08/30 05:48:31;;;;;;;12.50;10.77;;;;;;;15.41;84.31;101982.44;5065459;28;20111;-48
2022/08/30 05:51:11;;;;;;;15.30;10.82;;;;;;;15.42;83.95;101982.31;5052560;28;20115;-51
2022/08/30 05:53:38;;;;;;;15.02;10.32;;;;;;;15.42;84.03;101987.66;5054889;28;20053;-47
2022/08/30 05:56:06;;;;;;;15.18;11.10;;;;;;;15.43;84.08;101985.84;5058335;28;20024;-47
2022/08/30 05:58:32;;;;;;;12.35;10.90;;;;;;;15.45;84.23;101983.88;5058945;28;20028;-49
2022/08/30 06:00:59;;;;;;;13.10;11.25;;;;;;;15.44;83.92;101983.03;5058026;28;20029;-49
2022/08/30 06:03:25;;;;;;;12.60;11.00;;;;;;;15.47;84.16;101988.16;5058511;28;20052;-45
2022/08/30 06:05:51;;;;;;;12.00;10.85;;;;;;;15.51;84.08;101992.28;5067753;28;20031;-50
2022/08/30 06:08:16;;;;;;;15.35;11.07;;;;;;;15.56;84.32;101994.59;5062680;28;20036;-50
2022/08/30 06:10:42;;;;;;;15.13;11.43;;;;;;;15.58;83.88;101992.63;5072273;28;20084;-47
2022/08/30 06:13:07;;;;;;;12.48;10.93;;;;;;;15.60;84.12;101985.31;5071414;28;20045;-47
2022/08/30 06:15:32;;;;;;;11.60;10.45;;;;;;;15.65;83.89;101993.84;5056677;28;20061;-45
2022/08/30 06:17:58;;;;;;;12.52;11.27;;;;;;;15.69;83.47;101995.31;5055345;28;20041;-48
2022/08/30 06:20:24;;;;;;;14.50;11.05;;;;;;;15.72;83.25;101992.41;5074444;28;20052;-46
2022/08/30 06:22:49;;;;;;;13.00;11.57;;;;;;;15.77;82.96;101988.50;5066727;28;20097;-45
2022/08/30 06:25:15;;;;;;;13.75;10.95;;;;;;;15.81;82.76;101990.00;5070083;28;20028;-45
2022/08/30 06:27:41;;;;;;;13.95;10.85;;;;;;;15.84;82.89;101987.06;5081800;28;20033;-45
2022/08/30 06:30:07;;;;;;;13.27;11.20;;;;;;;15.86;82.59;101985.94;5080502;28;20031;-45
2022/08/30 06:32:33;;;;;;;12.25;11.05;;;;;;;15.90;82.33;101987.41;5079821;28;20206;-46
2022/08/30 06:34:59;;;;;;;12.50;11.25;;;;;;;15.95;82.41;101981.66;5074808;28;20017;-45
2022/08/30 06:37:24;;;;;;;13.40;11.63;;;;;;;15.99;81.99;101976.94;5071919;28;20052;-45
2022/08/30 06:39:49;;;;;;;12.40;11.18;;;;;;;16.02;81.69;101985.56;5075231;28;20810;-48
2022/08/30 06:42:14;;;;;;;12.98;11.52;;;;;;;16.05;81.53;101989.81;5073094;28;20048;-45
2022/08/30 06:44:40;;;;;;;14.47;11.83;;;;;;;16.09;81.17;101981.41;5074386;28;20101;-47
2022/08/30 06:47:06;;;;;;;13.25;11.85;;;;;;;16.14;81.07;101991.75;5076777;28;20279;-46
2022/08/30 06:49:31;;;;;;;13.43;12.00;;;;;;;16.17;81.06;101985.28;5081940;28;20067;-46
2022/08/30 06:51:56;;;;;;;14.13;12.50;;;;;;;16.19;80.58;101989.53;5069431;28;20081;-46
2022/08/30 06:54:22;;;;;;;12.43;11.32;;;;;;;16.22;80.17;101975.88;5074505;28;20028;-46
2022/08/30 06:56:47;;;;;;;14.20;12.35;;;;;;;16.30;80.24;101977.91;5067549;28;20103;-47
2022/08/30 06:59:12;;;;;;;12.87;11.53;;;;;;;16.36;80.40;101980.09;5068697;28;20060;-46
2022/08/30 07:01:38;;;;;;;15.57;12.57;;;;;;;16.52;80.71;101989.53;5072717;28;20297;-46
2022/08/30 07:04:03;;;;;;;14.20;12.43;;;;;;;16.61;79.93;101986.09;5067987;28;20642;-46
2022/08/30 07:06:29;;;;;;;15.20;12.50;;;;;;;16.77;79.41;101989.19;5071801;28;20028;-48
2022/08/30 07:08:56;;;;;;;13.25;11.85;;;;;;;16.94;79.16;101992.31;5067274;28;20653;-48
2022/08/30 07:11:30;;;;;;;16.48;11.80;;;;;;;17.12;78.61;101989.84;5057004;28;20425;-49
2022/08/30 07:13:56;;;;;;;13.20;11.80;;;;;;;17.37;77.81;101986.75;5081902;28;20386;-49
2022/08/30 07:16:21;;;;;;;12.52;11.32;;;;;;;17.57;76.55;101989.53;5073691;28;20025;-47
2022/08/30 07:18:49;;;;;;;11.65;10.40;;;;;;;17.75;75.76;101984.31;5061986;28;20060;-47
2022/08/30 07:21:20;;;;;;;11.40;10.30;;;;;;;17.89;74.22;101992.06;5068823;28;20488;-48
2022/08/30 07:23:49;;;;;;;13.65;10.52;;;;;;;18.03;73.68;102000.72;5073130;28;20135;-48
2022/08/30 07:26:18;;;;;;;12.98;10.18;;;;;;;18.19;73.36;101997.50;5074229;28;20112;-47
2022/08/30 07:28:44;;;;;;;13.63;9.52;;;;;;;18.27;72.36;101998.50;5074436;28;20062;-47
2022/08/30 07:31:11;;;;;;;15.77;9.82;;;;;;;18.34;71.89;102006.00;5078055;28;20482;-49
2022/08/30 07:33:37;;;;;;;10.13;9.00;;;;;;;18.46;71.61;102000.34;5076704;28;20039;-47
2022/08/30 07:36:03;;;;;;;11.02;9.52;;;;;;;18.61;71.16;101994.53;5089382;28;20035;-48
2022/08/30 07:38:29;;;;;;;9.38;8.50;;;;;;;18.78;71.14;101995.66;5090450;28;20047;-49
2022/08/30 07:40:57;;;;;;;9.70;8.15;;;;;;;18.97;70.57;101995.66;5085021;28;20032;-48
2022/08/30 07:43:23;;;;;;;12.20;8.50;;;;;;;19.09;68.98;101996.34;5073889;28;20039;-48
2022/08/30 07:45:48;;;;;;;9.18;8.20;;;;;;;19.19;68.16;101997.16;5072670;28;20029;-49
2022/08/30 07:48:14;;;;;;;9.90;8.00;;;;;;;19.35;67.73;101993.00;5073642;28;20046;-48
2022/08/30 07:50:45;;;;;;;10.25;8.23;;;;;;;19.57;67.97;101998.03;5082412;28;20017;-47
2022/08/30 07:53:10;;;;;;;9.07;7.68;;;;;;;19.73;67.56;102002.78;5070142;28;20158;-52
2022/08/30 07:55:36;;;;;;;8.43;7.65;;;;;;;19.78;65.78;102005.03;5073559;28;20096;-50
2022/08/30 07:58:01;;;;;;;9.77;7.53;;;;;;;19.85;66.39;101999.91;5073037;28;20385;-52
2022/08/30 08:00:26;;;;;;;9.13;7.50;;;;;;;19.86;65.47;101998.91;5072856;28;20026;-48
2022/08/30 08:02:52;;;;;;;13.57;7.70;;;;;;;19.89;65.27;102002.16;5072896;28;20574;-48
2022/08/30 08:05:17;;;;;;;10.07;7.32;;;;;;;19.99;65.46;101999.41;5061753;28;20052;-50
2022/08/30 08:07:42;;;;;;;8.10;7.28;;;;;;;20.07;64.36;102004.88;5073101;28;20028;-49
2022/08/30 08:10:08;;;;;;;9.43;7.20;;;;;;;20.16;64.12;102005.81;5069725;28;20070;-47
2022/08/30 08:12:35;;;;;;;10.80;6.85;;;;;;;20.38;63.63;102006.38;5062930;28;20025;-48
2022/08/30 08:15:00;;;;;;;12.93;6.47;;;;;;;20.43;63.27;102010.28;5056180;28;20025;-51
2022/08/30 08:17:26;;;;;;;9.32;6.70;;;;;;;20.51;63.13;102006.84;5062393;28;20510;-47
2022/08/30 08:19:51;;;;;;;13.18;7.45;;;;;;;20.56;62.67;102011.78;5057208;28;20040;-48
2022/08/30 08:22:16;;;;;;;9.20;6.83;;;;;;;20.51;61.96;102013.06;5054371;28;20379;-47
2022/08/30 08:24:42;;;;;;;9.27;6.70;;;;;;;20.50;61.84;102013.22;5065614;28;20270;-49
2022/08/30 08:27:07;;;;;;;8.55;6.75;;;;;;;20.51;62.15;102012.22;5077067;28;20285;-48
2022/08/30 08:29:33;;;;;;;9.98;6.88;;;;;;;20.50;62.10;102018.63;5071777;28;20036;-49
2022/08/30 08:31:59;;;;;;;10.63;6.43;;;;;;;20.60;61.77;102023.94;5071018;28;20485;-49
2022/08/30 08:34:24;;;;;;;9.38;6.00;;;;;;;20.77;61.46;102014.19;5077601;28;20059;-48
2022/08/30 08:36:50;;;;;;;7.72;6.45;;;;;;;20.78;61.37;102016.69;5075504;28;20028;-49
2022/08/30 08:39:16;;;;;;;6.85;6.20;;;;;;;20.87;61.36;102017.66;5084060;28;20095;-50
2022/08/30 08:42:06;;;;;;;10.05;5.93;;;;;;;20.95;60.64;102016.84;5085935;28;20017;-47
2022/08/30 08:44:58;;;;;;;7.80;6.00;;;;;;;21.11;61.73;102019.66;5080602;28;20086;-47
2022/08/30 08:47:32;;;;;;;9.30;5.97;;;;;;;21.26;59.68;102018.06;5086676;28;20032;-47
2022/08/30 08:50:01;;;;;;;7.65;5.25;;;;;;;21.38;59.01;102020.50;5073252;28;20031;-48
2022/08/30 08:55:56;;;;;;;7.80;5.05;;;;;;;21.60;57.73;102030.81;5068359;28;20394;-52
2022/08/30 08:58:29;;;;;;;9.00;5.00;;;;;;;21.73;57.87;102029.50;5066933;28;20032;-49
2022/08/30 09:00:56;;;;;;;7.72;5.00;;;;;;;21.84;57.56;102017.56;5083382;28;20028;-50
2022/08/30 09:03:25;;;;;;;9.73;4.63;;;;;;;22.05;56.64;102019.81;5070313;28;20115;-52
2022/08/30 09:05:52;;;;;;;5.43;4.50;;;;;;;22.16;56.66;102014.91;5070778;28;20017;-49
2022/08/30 09:08:19;;;;;;;9.32;4.70;;;;;;;22.23;56.40;102015.09;5082465;28;20085;-51
2022/08/30 09:11:09;;;;;;;5.57;4.20;;;;;;;22.49;57.29;102015.00;5070054;28;20039;-49
2022/08/30 09:13:35;;;;;;;4.32;3.92;;;;;;;22.65;55.43;102019.59;5062343;28;20025;-50
2022/08/30 09:16:00;;;;;;;6.03;4.50;;;;;;;22.84;53.96;101998.59;5065808;28;20454;-50
2022/08/30 09:18:52;;;;;;;6.93;3.90;;;;;;;23.12;56.05;102006.41;5062318;28;20508;-49
2022/08/30 09:21:25;;;;;;;5.22;3.95;;;;;;;23.30;53.96;102003.47;5058035;28;20044;-49
2022/08/30 09:23:57;;;;;;;17.40;4.25;;;;;;;23.51;52.52;102003.72;5059789;28;20083;-47
2022/08/30 09:26:32;;;;;;;7.97;3.75;;;;;;;23.59;52.75;102013.72;5064932;28;20417;-50
2022/08/30 09:28:59;;;;;;;7.25;3.75;;;;;;;23.78;52.00;102004.28;5053950;28;20021;-51
2022/08/30 09:31:44;;;;;;;4.18;3.40;;;;;;;24.03;52.52;102005.03;5054442;28;20387;-49
2022/08/30 09:34:17;;;;;;;5.97;3.67;;;;;;;24.13;51.06;102011.13;5062654;28;20048;-49
2022/08/30 09:36:50;;;;;;;8.50;3.47;;;;;;;24.16;49.62;102009.91;5054484;28;20071;-49
2022/08/30 09:39:27;;;;;;;9.13;3.88;;;;;;;24.25;51.39;102005.25;5062981;28;20026;-50
2022/08/30 09:41:53;;;;;;;5.07;3.03;;;;;;;24.34;48.96;102004.19;5057996;28;20105;-48
2022/08/30 09:44:26;;;;;;;6.05;3.03;;;;;;;24.63;49.45;102008.06;5053379;28;20032;-51
2022/08/30 09:47:00;;;;;;;4.55;3.30;;;;;;;24.72;48.08;102006.97;5072834;28;20032;-50
2022/08/30 09:49:34;;;;;;;3.35;2.65;;;;;;;24.88;47.32;102009.56;5089441;28;20024;-48
2022/08/30 09:52:07;;;;;;;6.72;3.05;;;;;;;25.06;47.91;102009.22;5084412;28;20088;-49
2022/08/30 09:54:57;;;;;;;5.28;2.70;;;;;;;25.21;47.09;102008.38;5071756;28;20033;-50
2022/08/30 09:57:31;;;;;;;5.75;2.90;;;;;;;25.11;46.38;102014.94;5070507;28;20044;-51
2022/08/30 10:00:06;;;;;;;7.75;2.90;;;;;;;25.34;46.73;102005.88;5074860;28;20036;-50
2022/08/30 10:02:39;;;;;;;7.93;3.20;;;;;;;25.49;45.94;102009.44;5077614;28;20059;-50
2022/08/30 10:05:16;;;;;;;4.70;2.38;;;;;;;25.59;46.48;102013.75;5071392;28;20122;-51
2022/08/30 10:08:03;;;;;;;4.25;2.15;;;;;;;25.76;45.81;102009.78;5075600;28;20374;-50
2022/08/30 10:10:48;;;;;;;3.97;2.35;;;;;;;25.78;45.80;102005.00;5084097;28;20028;-49
2022/08/30 10:13:40;;;;;;;5.97;2.22;;;;;;;25.87;45.07;102011.19;5068741;28;20494;-49
2022/08/30 10:16:43;;;;;;;7.63;2.50;;;;;;;25.92;43.92;102011.44;5070067;28;20119;-52
2022/08/30 10:19:28;;;;;;;4.32;2.10;;;;;;;25.92;43.59;102003.28;5085083;28;20052;-52
2022/08/30 10:22:01;;;;;;;5.43;2.10;;;;;;;25.96;43.12;102001.03;5086228;28;20056;-49
2022/08/30 10:24:39;;;;;;;5.50;2.28;;;;;;;25.97;43.13;102000.84;5072612;28;20392;-52
2022/08/30 10:27:18;;;;;;;4.35;2.30;;;;;;;25.88;43.04;102002.00;5091964;28;20043;-53
2022/08/30 10:29:58;;;;;;;5.88;2.20;;;;;;;25.83;42.75;101996.25;5084383;28;20029;-53
2022/08/30 10:32:31;;;;;;;6.25;2.00;;;;;;;25.95;41.93;101994.75;5077212;28;20377;-51
2022/08/30 10:35:08;;;;;;;10.43;2.35;;;;;;;26.16;42.93;101993.09;5064707;28;20053;-50
2022/08/30 10:37:39;;;;;;;2.13;1.90;;;;;;;26.30;41.39;101989.47;5069067;28;20077;-50
2022/08/30 10:43:01;;;;;;;4.43;1.80;;;;;;;26.37;41.59;101984.94;5064618;28;20047;-50
2022/08/30 10:45:31;;;;;;;6.22;1.90;;;;;;;26.51;41.14;101988.66;5067142;28;20077;-53
2022/08/30 10:48:14;;;;;;;5.03;2.10;;;;;;;26.62;41.45;101981.81;5061359;28;20028;-51
2022/08/30 10:50:44;;;;;;;3.90;1.98;;;;;;;26.44;40.67;101992.34;5062508;28;20454;-50
2022/08/30 10:53:20;;;;;;;5.57;2.40;;;;;;;26.44;41.06;101989.59;5067856;28;20127;-52
2022/08/30 10:55:56;;;;;;;9.65;2.13;;;;;;;26.37;41.46;101984.94;5072149;28;20443;-51
2022/08/30 10:58:22;;;;;;;6.68;2.10;;;;;;;26.47;40.44;101981.88;5059345;28;20076;-52
2022/08/30 11:01:21;;;;;;;5.78;2.00;;;;;;;26.63;41.84;101988.09;5063705;28;20064;-53
2022/08/30 11:04:16;;;;;;;3.67;2.03;;;;;;;26.67;41.20;101978.53;5072788;28;20516;-51
2022/08/30 11:06:58;;;;;;;2.65;2.00;;;;;;;26.56;40.28;101983.44;5072874;28;20035;-53
2022/08/30 11:09:48;;;;;;;3.67;1.90;;;;;;;26.54;39.92;101984.66;5073689;28;20032;-50
2022/08/30 11:12:30;;;;;;;4.13;2.22;;;;;;;26.52;40.70;101975.84;5087112;28;20158;-53
2022/08/30 11:14:56;;;;;;;4.65;2.00;;;;;;;26.41;40.27;101979.94;5073372;28;20099;-49
2022/08/30 11:17:34;;;;;;;7.40;2.00;;;;;;;26.45;40.62;101978.53;5073740;28;20024;-51
2022/08/30 11:20:03;;;;;;;3.72;2.20;;;;;;;26.42;40.48;101983.53;5073679;28;20375;-50
2022/08/30 11:22:32;;;;;;;;;;;;;;;26.70;40.32;101978.97;5073017;28;20021;-51
2022/08/30 11:25:05;;;;;;;3.00;1.88;;;;;;;26.26;39.96;101971.81;5075486;28;19916;-49
2022/08/30 11:27:52;;;;;;;8.15;1.80;;;;;;;26.56;40.99;101979.84;5066032;28;20029;-52
2022/08/30 11:30:24;;;;;;;3.85;1.80;;;;;;;26.45;40.15;101972.25;5053205;28;20374;-48
2022/08/30 11:32:59;;;;;;;5.32;2.28;;;;;;;26.26;40.74;101976.44;5055134;28;20510;-48
2022/08/30 11:36:00;;;;;;;8.30;1.92;;;;;;;26.31;40.92;101980.28;5072296;28;20027;-49